createdAt,value
2023-01-27T00:00:59.008Z,4.90
2023-01-27T00:03:25.285Z,4.33
2023-01-27T00:05:51.432Z,4.50
2023-01-27T00:08:17.879Z,4.23
2023-01-27T00:10:44.164Z,4.60
2023-01-27T00:13:35.728Z,4.40
2023-01-27T00:16:02.646Z,4.33
2023-01-27T00:18:28.827Z,4.57
2023-01-27T00:21:13.622Z,4.23
2023-01-27T00:23:57.877Z,4.83
2023-01-27T00:26:24.122Z,4.80
2023-01-27T00:28:50.359Z,4.70
2023-01-27T00:31:35.546Z,5.10
2023-01-27T00:34:08.087Z,4.47
2023-01-27T00:36:35.130Z,4.70
2023-01-27T00:39:01.319Z,4.43
2023-01-27T00:41:28.050Z,5.03
2023-01-27T00:43:54.617Z,4.60
2023-01-27T00:46:22.785Z,5.10
2023-01-27T00:48:49.208Z,5.40
2023-01-27T00:51:16.693Z,5.60
2023-01-27T00:53:42.889Z,5.60
2023-01-27T00:56:09.058Z,5.67
2023-01-27T00:58:35.419Z,5.47
2023-01-27T01:01:03.323Z,5.27
2023-01-27T01:03:31.694Z,5.93
2023-01-27T01:05:58.157Z,5.13
2023-01-27T01:08:24.436Z,6.63
2023-01-27T01:10:50.880Z,6.50
2023-01-27T01:13:17.066Z,6.13
2023-01-27T01:15:43.504Z,6.50
2023-01-27T01:18:10.497Z,7.70
2023-01-27T01:20:38.717Z,7.17
2023-01-27T01:23:04.986Z,8.03
2023-01-27T01:25:31.077Z,8.07
2023-01-27T01:27:57.190Z,7.83
2023-01-27T01:30:25.527Z,7.97
2023-01-27T01:32:51.712Z,7.63
2023-01-27T01:35:17.854Z,7.57
2023-01-27T01:37:44.587Z,8.33
2023-01-27T01:40:12.160Z,6.90
2023-01-27T01:42:56.068Z,6.73
2023-01-27T01:45:46.223Z,7.33
2023-01-27T01:48:16.654Z,7.27
2023-01-27T01:50:46.155Z,8.20
2023-01-27T01:53:12.964Z,7.27
2023-01-27T01:55:40.137Z,7.23
2023-01-27T01:58:07.600Z,7.53
2023-01-27T02:00:34.029Z,7.43
2023-01-27T02:03:00.961Z,8.10
2023-01-27T02:05:30.278Z,7.53
2023-01-27T02:07:58.854Z,6.93
2023-01-27T02:10:25.764Z,7.20
2023-01-27T02:12:52.376Z,7.40
2023-01-27T02:15:20.615Z,7.37
2023-01-27T02:17:47.195Z,7.97
2023-01-27T02:20:20.389Z,8.10
2023-01-27T02:22:51.324Z,8.53
2023-01-27T02:25:21.256Z,9.73
2023-01-27T02:27:48.059Z,8.67
2023-01-27T02:30:14.198Z,10.10
2023-01-27T02:32:40.344Z,10.47
2023-01-27T02:35:08.857Z,8.70
2023-01-27T02:37:35.347Z,8.73
2023-01-27T02:40:02.920Z,8.30
2023-01-27T02:42:29.121Z,5.80
2023-01-27T02:44:55.881Z,7.17
2023-01-27T02:47:22.106Z,6.67
2023-01-27T02:49:48.785Z,6.50
2023-01-27T02:52:14.917Z,5.47
2023-01-27T02:54:41.261Z,6.10
2023-01-27T02:57:07.398Z,6.80
2023-01-27T02:59:33.596Z,6.00
2023-01-27T03:02:00.350Z,6.83
2023-01-27T03:04:26.495Z,6.00
2023-01-27T03:06:52.798Z,5.60
2023-01-27T03:09:19.040Z,6.87
2023-01-27T03:12:03.678Z,6.53
2023-01-27T03:14:48.087Z,6.97
2023-01-27T03:17:33.305Z,6.60
2023-01-27T03:19:59.549Z,6.70
2023-01-27T03:22:25.728Z,7.17
2023-01-27T03:24:51.903Z,8.33
2023-01-27T03:27:18.028Z,8.90
2023-01-27T03:29:56.586Z,8.57
2023-01-27T03:32:23.999Z,8.30
2023-01-27T03:34:50.118Z,8.23
2023-01-27T03:37:34.883Z,8.63
2023-01-27T03:40:19.181Z,6.80
2023-01-27T03:43:03.785Z,7.23
2023-01-27T03:45:48.325Z,8.17
2023-01-27T03:48:17.669Z,7.27
2023-01-27T03:50:43.913Z,7.03
2023-01-27T03:53:10.621Z,7.47
2023-01-27T03:55:37.639Z,7.10
2023-01-27T03:58:13.703Z,6.90
2023-01-27T04:00:40.133Z,6.63
2023-01-27T04:03:24.514Z,6.57
2023-01-27T04:06:09.848Z,6.60
2023-01-27T04:08:35.940Z,6.20
2023-01-27T04:11:21.048Z,7.53
2023-01-27T04:13:47.146Z,5.77
2023-01-27T04:16:13.360Z,5.73
2023-01-27T04:18:39.515Z,5.80
2023-01-27T04:21:06.382Z,5.43
2023-01-27T04:23:32.529Z,5.90
2023-01-27T04:25:59.558Z,5.23
2023-01-27T04:28:43.281Z,6.13
2023-01-27T04:31:10.220Z,6.23
2023-01-27T04:33:36.408Z,5.93
2023-01-27T04:36:02.649Z,6.17
2023-01-27T04:38:29.598Z,6.97
2023-01-27T04:40:55.861Z,7.00
2023-01-27T04:43:21.988Z,6.47
2023-01-27T04:45:48.416Z,6.80
2023-01-27T04:48:14.566Z,7.20
2023-01-27T04:50:40.664Z,7.10
2023-01-27T04:53:06.775Z,7.97
2023-01-27T04:55:33.586Z,7.40
2023-01-27T04:57:59.743Z,8.30
2023-01-27T05:00:26.289Z,7.50
2023-01-27T05:02:52.438Z,7.23
2023-01-27T05:05:18.620Z,7.53
2023-01-27T05:07:44.740Z,8.63
2023-01-27T05:10:11.317Z,8.40
2023-01-27T05:12:38.175Z,8.70
2023-01-27T05:15:05.325Z,8.50
2023-01-27T05:17:31.736Z,8.70
2023-01-27T05:19:57.850Z,9.40
2023-01-27T05:22:24.209Z,9.43
2023-01-27T05:24:50.345Z,8.77
2023-01-27T05:27:16.916Z,9.57
2023-01-27T05:29:43.674Z,8.50
2023-01-27T05:32:10.084Z,8.70
2023-01-27T05:34:36.215Z,9.83
2023-01-27T05:37:02.394Z,9.33
2023-01-27T05:39:28.589Z,9.40
2023-01-27T05:41:54.729Z,9.40
2023-01-27T05:44:20.866Z,9.37
2023-01-27T05:46:47.721Z,9.13
2023-01-27T05:49:13.887Z,10.10
2023-01-27T05:51:40.200Z,10.03
2023-01-27T05:54:07.122Z,9.40
2023-01-27T05:56:33.769Z,10.70
2023-01-27T05:59:00.176Z,9.93
2023-01-27T06:01:28.146Z,9.90
2023-01-27T06:03:55.251Z,10.47
2023-01-27T06:06:23.186Z,10.50
2023-01-27T06:08:49.383Z,10.90
2023-01-27T06:11:18.998Z,11.00
2023-01-27T06:13:45.241Z,10.67
2023-01-27T06:16:13.547Z,10.50
2023-01-27T06:18:40.180Z,9.50
2023-01-27T06:21:08.253Z,9.63
2023-01-27T06:23:34.567Z,10.33
2023-01-27T06:26:01.874Z,10.53
2023-01-27T06:28:29.681Z,9.03
2023-01-27T06:30:56.502Z,10.03
2023-01-27T06:33:22.760Z,10.00
2023-01-27T06:35:48.882Z,9.53
2023-01-27T06:38:15.715Z,9.80
2023-01-27T06:40:42.244Z,9.50
2023-01-27T06:43:11.389Z,10.23
2023-01-27T06:45:37.491Z,10.17
2023-01-27T06:48:04.233Z,9.90
2023-01-27T06:50:30.356Z,9.90
2023-01-27T06:52:59.929Z,9.73
2023-01-27T06:55:27.017Z,9.50
2023-01-27T06:57:53.137Z,10.73
2023-01-27T07:00:19.791Z,9.97
2023-01-27T07:02:46.020Z,10.33
2023-01-27T07:05:12.746Z,10.23
2023-01-27T07:07:38.931Z,9.77
2023-01-27T07:10:06.331Z,10.43
2023-01-27T07:12:36.909Z,9.83
2023-01-27T07:15:04.357Z,9.67
2023-01-27T07:17:30.595Z,9.97
2023-01-27T07:19:57.812Z,10.83
2023-01-27T07:22:23.917Z,10.30
2023-01-27T07:24:50.078Z,10.53
2023-01-27T07:27:16.366Z,10.23
2023-01-27T07:29:43.353Z,10.47
2023-01-27T07:32:09.526Z,11.20
2023-01-27T07:34:35.640Z,10.93
2023-01-27T07:37:02.520Z,11.67
2023-01-27T07:39:28.787Z,10.17
2023-01-27T07:41:54.903Z,10.60
2023-01-27T07:44:21.089Z,10.87
2023-01-27T07:46:47.876Z,11.23
2023-01-27T07:49:13.997Z,11.87
2023-01-27T07:51:40.096Z,10.97
2023-01-27T07:54:06.379Z,10.60
2023-01-27T07:56:32.616Z,10.43
2023-01-27T07:58:58.722Z,11.07
2023-01-27T08:01:24.868Z,10.53
2023-01-27T08:03:51.589Z,10.20
2023-01-27T08:06:17.678Z,9.87
2023-01-27T08:08:43.930Z,10.40
2023-01-27T08:11:12.804Z,10.73
2023-01-27T08:13:39.042Z,11.03
2023-01-27T08:16:08.040Z,9.10
2023-01-27T08:18:34.518Z,9.87
2023-01-27T08:21:02.590Z,9.93
2023-01-27T08:23:28.905Z,9.57
2023-01-27T08:25:56.184Z,9.23
2023-01-27T08:28:23.231Z,9.07
2023-01-27T08:30:51.000Z,9.33
2023-01-27T08:33:17.604Z,9.13
2023-01-27T08:35:44.174Z,8.20
2023-01-27T08:38:11.450Z,8.30
2023-01-27T08:40:38.139Z,8.60
2023-01-27T08:43:05.163Z,7.47
2023-01-27T08:45:31.453Z,7.60
2023-01-27T08:47:57.592Z,8.33
2023-01-27T08:50:23.733Z,7.63
2023-01-27T08:52:49.848Z,7.67
2023-01-27T08:55:16.666Z,8.30
2023-01-27T08:57:42.802Z,8.47
2023-01-27T09:00:10.810Z,8.93
2023-01-27T09:02:37.059Z,8.03
2023-01-27T09:05:03.342Z,8.77
2023-01-27T09:07:29.646Z,9.13
2023-01-27T09:10:07.718Z,8.67
2023-01-27T09:12:39.869Z,9.20
2023-01-27T09:15:07.313Z,9.30
2023-01-27T09:17:33.454Z,8.87
2023-01-27T09:19:59.554Z,9.13
2023-01-27T09:22:25.688Z,9.23
2023-01-27T09:24:52.238Z,8.57
2023-01-27T09:27:22.486Z,10.30
2023-01-27T09:29:56.790Z,9.23
2023-01-27T09:32:22.918Z,9.30
2023-01-27T09:34:49.044Z,9.20
2023-01-27T09:37:15.169Z,8.70
2023-01-27T09:39:43.490Z,8.20
2023-01-27T09:42:34.902Z,9.17
2023-01-27T09:45:21.873Z,8.30
2023-01-27T09:48:08.547Z,9.70
2023-01-27T09:50:42.148Z,8.77
2023-01-27T09:53:32.767Z,9.30
2023-01-27T09:56:02.623Z,9.03
2023-01-27T09:58:38.986Z,9.17
2023-01-27T10:01:11.124Z,8.93
2023-01-27T10:04:06.879Z,9.43
2023-01-27T10:06:49.029Z,10.57
2023-01-27T10:09:51.103Z,9.00
2023-01-27T10:12:27.451Z,10.00
2023-01-27T10:15:03.311Z,9.63
2023-01-27T10:17:38.131Z,10.40
2023-01-27T10:20:18.953Z,9.67
2023-01-27T10:22:50.754Z,10.20
2023-01-27T10:25:25.270Z,8.80
2023-01-27T10:27:55.568Z,8.60
2023-01-27T10:30:27.525Z,8.10
2023-01-27T10:32:58.188Z,7.97
2023-01-27T10:35:29.691Z,7.60
2023-01-27T10:38:02.912Z,7.53
2023-01-27T10:40:35.498Z,7.20
2023-01-27T10:43:06.429Z,7.00
2023-01-27T10:45:36.792Z,7.07
2023-01-27T10:48:18.359Z,7.33
2023-01-27T10:50:47.217Z,6.60
2023-01-27T10:53:16.097Z,6.80
2023-01-27T10:55:46.395Z,7.20
2023-01-27T10:58:16.194Z,7.80
2023-01-27T11:01:18.019Z,6.87
2023-01-27T11:03:33.441Z,10.70
2023-01-27T11:06:03.454Z,7.00
2023-01-27T11:08:32.817Z,6.47
2023-01-27T11:11:19.156Z,7.20
2023-01-27T11:13:45.749Z,6.43
2023-01-27T11:16:14.807Z,6.90
2023-01-27T11:18:45.154Z,6.30
2023-01-27T11:21:15.336Z,7.20
2023-01-27T11:23:45.041Z,6.50
2023-01-27T11:26:18.595Z,6.37
2023-01-27T11:28:48.296Z,7.67
2023-01-27T11:31:20.783Z,7.63
2023-01-27T11:33:57.315Z,8.50
2023-01-27T11:36:24.030Z,7.47
2023-01-27T11:38:50.197Z,9.33
2023-01-27T11:41:16.453Z,8.00
2023-01-27T11:43:42.643Z,8.50
2023-01-27T11:46:13.078Z,9.60
2023-01-27T11:48:41.932Z,8.03
2023-01-27T11:51:13.330Z,8.37
2023-01-27T11:53:40.476Z,9.10
2023-01-27T11:56:10.196Z,7.60
2023-01-27T11:58:40.653Z,8.10
2023-01-27T12:01:12.129Z,8.10
2023-01-27T12:03:48.314Z,7.97
2023-01-27T12:06:17.353Z,7.67
2023-01-27T12:08:45.034Z,8.17
2023-01-27T12:11:22.949Z,8.13
2023-01-27T12:13:51.109Z,8.20
2023-01-27T12:16:17.624Z,8.10
2023-01-27T12:18:53.894Z,8.13
2023-01-27T12:21:21.884Z,8.40
2023-01-27T12:23:49.704Z,8.13
2023-01-27T12:26:16.088Z,8.63
2023-01-27T12:28:48.103Z,7.90
2023-01-27T12:31:21.756Z,7.67
2023-01-27T12:33:51.970Z,7.47
2023-01-27T12:36:21.792Z,8.53
2023-01-27T12:38:50.624Z,8.40
2023-01-27T12:41:22.055Z,8.30
2023-01-27T12:43:52.378Z,8.93
2023-01-27T12:46:22.090Z,8.07
2023-01-27T12:48:49.694Z,8.70
2023-01-27T12:51:18.621Z,8.80
2023-01-27T12:53:47.876Z,8.70
2023-01-27T12:56:16.779Z,9.17
2023-01-27T12:58:44.035Z,8.83
2023-01-27T13:01:27.421Z,9.33
2023-01-27T13:03:57.062Z,9.07
2023-01-27T13:06:30.465Z,9.80
2023-01-27T13:08:57.737Z,9.07
2023-01-27T13:11:31.050Z,9.33
2023-01-27T13:13:57.801Z,8.90
2023-01-27T13:16:26.452Z,8.77
2023-01-27T13:18:56.127Z,8.73
2023-01-27T13:21:25.837Z,8.43
2023-01-27T13:23:52.713Z,8.27
2023-01-27T13:26:22.544Z,7.97
2023-01-27T13:28:53.438Z,8.10
2023-01-27T13:31:22.699Z,8.70
2023-01-27T13:33:52.570Z,7.10
2023-01-27T13:36:27.629Z,6.57
2023-01-27T13:38:58.976Z,6.57
2023-01-27T13:41:30.999Z,6.47
2023-01-27T13:44:01.659Z,6.27
2023-01-27T13:46:30.159Z,6.03
2023-01-27T13:48:58.833Z,6.13
2023-01-27T13:51:28.211Z,5.70
2023-01-27T13:53:58.286Z,5.30
2023-01-27T13:56:34.817Z,5.03
2023-01-27T13:59:08.101Z,5.07
2023-01-27T14:01:42.872Z,4.90
2023-01-27T14:04:30.668Z,4.40
2023-01-27T14:07:04.875Z,3.73
2023-01-27T14:09:50.032Z,3.93
2023-01-27T14:12:29.602Z,3.60
2023-01-27T14:15:01.362Z,3.53
2023-01-27T14:17:34.388Z,3.50
2023-01-27T14:20:26.333Z,3.73
2023-01-27T14:22:59.885Z,4.00
2023-01-27T14:25:32.806Z,3.80
2023-01-27T14:28:10.036Z,3.90
2023-01-27T14:30:40.845Z,3.70
2023-01-27T14:33:14.431Z,3.43
2023-01-27T14:35:44.685Z,3.73
2023-01-27T14:38:16.530Z,3.87
2023-01-27T14:40:51.449Z,4.30
2023-01-27T14:43:25.351Z,3.83
2023-01-27T14:45:55.703Z,3.97
2023-01-27T14:48:38.465Z,4.40
2023-01-27T14:51:07.892Z,4.40
2023-01-27T14:53:49.359Z,8.20
2023-01-27T14:56:23.419Z,7.60
2023-01-27T14:58:57.305Z,5.53
2023-01-27T15:01:32.494Z,9.90
2023-01-27T15:04:21.601Z,13.23
2023-01-27T15:06:50.909Z,5.60
2023-01-27T15:09:27.942Z,4.83
2023-01-27T15:12:08.075Z,5.17
2023-01-27T15:14:56.966Z,5.40
2023-01-27T15:17:42.329Z,5.13
2023-01-27T15:20:25.075Z,4.80
2023-01-27T15:23:31.262Z,5.33
2023-01-27T15:25:59.554Z,4.10
2023-01-27T15:28:28.940Z,4.67
2023-01-27T15:31:20.860Z,4.57
2023-01-27T15:33:52.897Z,3.97
2023-01-27T15:36:33.088Z,4.80
2023-01-27T15:39:03.528Z,4.60
2023-01-27T15:41:29.677Z,5.23
2023-01-27T15:44:15.369Z,6.30
2023-01-27T15:46:43.924Z,5.10
2023-01-27T15:49:16.793Z,6.10
2023-01-27T15:51:43.021Z,7.60
2023-01-27T15:54:13.892Z,5.60
2023-01-27T15:56:46.562Z,4.53
2023-01-27T15:59:18.537Z,5.23
2023-01-27T16:01:47.519Z,4.60
2023-01-27T16:04:15.731Z,5.30
2023-01-27T16:06:47.823Z,6.03
2023-01-27T16:09:20.925Z,7.90
2023-01-27T16:11:58.552Z,6.77
2023-01-27T16:14:42.376Z,6.30
2023-01-27T16:17:21.535Z,5.00
2023-01-27T16:19:54.373Z,5.20
2023-01-27T16:22:22.752Z,4.97
2023-01-27T16:24:55.357Z,5.23
2023-01-27T16:27:35.857Z,5.47
2023-01-27T16:30:12.225Z,4.43
2023-01-27T16:32:42.044Z,5.17
2023-01-27T16:35:16.218Z,4.70
2023-01-27T16:37:59.454Z,4.43
2023-01-27T16:40:27.046Z,4.93
2023-01-27T16:42:56.248Z,4.63
2023-01-27T16:45:23.945Z,4.57
2023-01-27T16:47:53.830Z,4.73
2023-01-27T16:50:34.750Z,4.90
2023-01-27T16:53:01.472Z,5.23
2023-01-27T16:55:27.617Z,4.93
2023-01-27T16:57:54.277Z,5.03
2023-01-27T17:00:22.881Z,6.80
2023-01-27T17:02:49.787Z,5.70
2023-01-27T17:05:18.415Z,6.10
2023-01-27T17:08:01.482Z,6.23
2023-01-27T17:10:34.749Z,6.80
2023-01-27T17:13:01.503Z,8.60
2023-01-27T17:15:30.897Z,7.40
2023-01-27T17:17:57.533Z,7.90
2023-01-27T17:20:27.048Z,6.33
2023-01-27T17:22:54.085Z,6.87
2023-01-27T17:25:28.613Z,6.60
2023-01-27T17:27:55.637Z,5.77
2023-01-27T17:30:23.568Z,6.47
2023-01-27T17:32:50.939Z,7.77
2023-01-27T17:35:21.443Z,8.10
2023-01-27T17:37:48.521Z,11.00
2023-01-27T17:40:16.618Z,9.13
2023-01-27T17:42:43.515Z,10.07
2023-01-27T17:45:23.874Z,7.47
2023-01-27T17:47:50.181Z,5.50
2023-01-27T17:50:17.304Z,5.90
2023-01-27T17:52:52.157Z,5.40
2023-01-27T17:55:21.791Z,6.17
2023-01-27T17:57:49.885Z,6.33
2023-01-27T18:00:23.492Z,5.73
2023-01-27T18:02:53.688Z,6.60
2023-01-27T18:05:21.775Z,7.83
2023-01-27T18:07:48.086Z,6.10
2023-01-27T18:10:25.723Z,5.90
2023-01-27T18:12:52.339Z,5.50
2023-01-27T18:15:47.814Z,4.97
2023-01-27T18:18:23.093Z,8.13
2023-01-27T18:20:52.901Z,9.17
2023-01-27T18:23:23.729Z,7.53
2023-01-27T18:26:01.576Z,7.57
2023-01-27T18:28:28.618Z,7.40
2023-01-27T18:30:54.845Z,6.47
2023-01-27T18:33:21.199Z,7.10
2023-01-27T18:35:55.781Z,6.80
2023-01-27T18:38:23.831Z,7.83
2023-01-27T18:40:49.995Z,7.53
2023-01-27T18:43:16.746Z,8.63
2023-01-27T18:45:43.515Z,7.67
2023-01-27T18:48:10.238Z,7.40
2023-01-27T18:50:40.775Z,6.33
2023-01-27T18:53:13.694Z,7.00
2023-01-27T18:55:39.831Z,7.57
2023-01-27T18:58:05.974Z,7.47
2023-01-27T19:00:36.732Z,7.23
2023-01-27T19:03:06.981Z,6.90
2023-01-27T19:05:34.490Z,9.13
2023-01-27T19:08:01.022Z,7.53
2023-01-27T19:10:28.748Z,7.30
2023-01-27T19:12:57.519Z,7.07
2023-01-27T19:15:24.930Z,7.70
2023-01-27T19:17:53.340Z,7.20
2023-01-27T19:20:23.521Z,7.53
2023-01-27T19:22:52.509Z,7.47
2023-01-27T19:25:19.038Z,7.80
2023-01-27T19:27:50.998Z,10.30
2023-01-27T19:30:24.396Z,8.40
2023-01-27T19:32:50.614Z,9.03
2023-01-27T19:35:17.383Z,8.47
2023-01-27T19:37:43.621Z,9.57
2023-01-27T19:40:15.901Z,7.77
2023-01-27T19:42:42.064Z,7.37
2023-01-27T19:45:10.500Z,7.40
2023-01-27T19:47:37.062Z,7.63
2023-01-27T19:50:05.831Z,6.67
2023-01-27T19:52:32.623Z,7.40
2023-01-27T19:54:59.403Z,7.60
2023-01-27T19:57:25.609Z,7.27
2023-01-27T19:59:51.756Z,7.93
2023-01-27T20:02:17.919Z,8.33
2023-01-27T20:04:44.120Z,7.80
2023-01-27T20:07:11.727Z,7.67
2023-01-27T20:09:38.485Z,8.47
2023-01-27T20:12:04.685Z,7.90
2023-01-27T20:14:31.477Z,7.87
2023-01-27T20:16:57.859Z,8.13
2023-01-27T20:19:23.979Z,8.07
2023-01-27T20:21:50.303Z,7.70
2023-01-27T20:24:17.842Z,7.17
2023-01-27T20:26:44.702Z,6.87
2023-01-27T20:29:10.898Z,7.70
2023-01-27T20:31:37.785Z,7.40
2023-01-27T20:34:03.900Z,6.37
2023-01-27T20:36:30.065Z,6.83
2023-01-27T20:38:56.169Z,6.77
2023-01-27T20:41:23.471Z,7.10
2023-01-27T20:43:54.873Z,7.10
2023-01-27T20:46:21.282Z,7.10
2023-01-27T20:48:47.571Z,6.70
2023-01-27T20:51:15.053Z,6.90
2023-01-27T20:53:44.514Z,6.83
2023-01-27T20:56:11.400Z,7.17
2023-01-27T20:58:37.686Z,14.20
2023-01-27T21:01:07.996Z,7.00
2023-01-27T21:03:35.335Z,6.17
2023-01-27T21:06:02.777Z,4.83
2023-01-27T21:08:29.322Z,6.30
2023-01-27T21:10:55.689Z,7.77
2023-01-27T21:13:21.805Z,5.37
2023-01-27T21:15:48.753Z,5.20
2023-01-27T21:18:16.319Z,7.13
2023-01-27T21:20:46.532Z,7.67
2023-01-27T21:23:12.713Z,5.37
2023-01-27T21:25:38.823Z,4.37
2023-01-27T21:28:05.053Z,5.10
2023-01-27T21:30:31.185Z,3.93
2023-01-27T21:32:57.360Z,3.60
2023-01-27T21:35:24.360Z,3.80
2023-01-27T21:37:51.009Z,3.63
2023-01-27T21:40:17.283Z,4.10
2023-01-27T21:43:01.816Z,4.20
2023-01-27T21:45:28.091Z,3.90
2023-01-27T21:47:54.214Z,4.07
2023-01-27T21:50:20.382Z,4.17
2023-01-27T21:52:48.334Z,3.80
2023-01-27T21:55:16.719Z,3.70
2023-01-27T21:57:44.952Z,4.17
2023-01-27T22:00:12.952Z,4.57
2023-01-27T22:02:39.884Z,4.77
2023-01-27T22:05:06.829Z,4.47
2023-01-27T22:07:37.327Z,4.50
2023-01-27T22:10:05.483Z,4.30
2023-01-27T22:12:31.705Z,4.73
2023-01-27T22:14:57.850Z,4.33
2023-01-27T22:17:23.988Z,4.40
2023-01-27T22:19:50.114Z,4.27
2023-01-27T22:22:16.249Z,4.77
2023-01-27T22:24:42.403Z,4.63
2023-01-27T22:27:09.141Z,3.97
2023-01-27T22:29:35.291Z,4.60
2023-01-27T22:32:01.453Z,4.37
2023-01-27T22:34:27.600Z,4.17
2023-01-27T22:36:53.846Z,4.20
2023-01-27T22:39:20.070Z,4.10
2023-01-27T22:41:46.671Z,4.60
2023-01-27T22:44:13.769Z,4.20
2023-01-27T22:46:41.571Z,4.70
2023-01-27T22:49:08.164Z,5.30
2023-01-27T22:51:34.276Z,4.60
2023-01-27T22:54:00.643Z,4.57
2023-01-27T22:56:26.825Z,4.77
2023-01-27T22:58:52.925Z,4.83
2023-01-27T23:01:19.753Z,4.50
2023-01-27T23:03:45.924Z,4.50
2023-01-27T23:06:12.229Z,4.47
2023-01-27T23:08:38.408Z,4.67
2023-01-27T23:11:05.960Z,4.77
2023-01-27T23:13:33.104Z,4.87
2023-01-27T23:15:59.235Z,4.63
2023-01-27T23:18:26.009Z,4.43
2023-01-27T23:20:52.138Z,4.07
2023-01-27T23:23:18.744Z,4.50
2023-01-27T23:25:46.031Z,3.63
2023-01-27T23:28:12.961Z,4.17
2023-01-27T23:30:42.264Z,3.73
2023-01-27T23:33:08.413Z,3.93
2023-01-27T23:35:35.140Z,3.63
2023-01-27T23:38:01.961Z,3.67
2023-01-27T23:40:28.091Z,3.70
2023-01-27T23:42:54.188Z,3.17
2023-01-27T23:45:20.359Z,3.37
2023-01-27T23:47:46.452Z,4.03
2023-01-27T23:50:12.561Z,3.70
2023-01-27T23:52:39.342Z,4.37
2023-01-27T23:55:06.406Z,3.80
2023-01-27T23:57:32.771Z,4.00
2023-01-27T23:59:58.992Z,4.00
